Terminal Aerodrome Forecast
Issued by NWS

Home | Current Version | Previous Version | Text Only | Print | Product List | Glossary Off
Versions: 1 2 3 4 5 6 7 8 9 10 11 12 13 14 15 16 17 18 19 20 21 22 23 24 25 26 27 28 29 30 31 32 33 34 35 36 37

000
FTUS43 KLOT 040849 AAB
TAFORD
TAF AMD
KORD 040849Z 0409/0512 27011KT P6SM VCSH OVC090
     FM041000 VRB06KT 6SM -SHRA BR FEW020 OVC080
     FM041300 29007KT 6SM BR SCT020 OVC070
     FM041500 34010KT 6SM BR SCT015 BKN070
     FM041600 02012KT 6SM BR OVC015
     FM042100 04011KT P6SM BKN030
     FM050000 04009KT P6SM VCSH BKN040
     FM050300 07009KT 4SM -SHRA VCTS OVC025CB=

USA.gov is the U.S. government's official web portal to all federal, state and local government web resources and services.